createdAt,value
2019-05-19T00:01:31.967Z,79.71
2019-05-19T00:04:01.657Z,79.95
2019-05-19T00:06:31.802Z,80.04
2019-05-19T00:09:02.044Z,80.16
2019-05-19T00:11:35.265Z,80.14
2019-05-19T00:14:05.390Z,80.23
2019-05-19T00:16:34.929Z,80.33
2019-05-19T00:19:04.709Z,80.35
2019-05-19T00:21:34.594Z,80.40
2019-05-19T00:24:04.349Z,80.43
2019-05-19T00:26:34.299Z,80.37
2019-05-19T00:29:04.169Z,80.42
2019-05-19T00:31:34.486Z,80.31
2019-05-19T00:34:04.271Z,80.09
2019-05-19T00:36:36.038Z,80.26
2019-05-19T00:39:07.020Z,80.41
2019-05-19T00:41:38.108Z,80.49
2019-05-19T00:44:07.973Z,80.24
2019-05-19T00:46:37.819Z,79.93
2019-05-19T00:49:08.083Z,79.74
2019-05-19T00:51:39.343Z,79.61
2019-05-19T00:54:10.070Z,79.47
2019-05-19T00:56:40.588Z,79.46
2019-05-19T00:59:10.721Z,79.41
2019-05-19T01:01:42.652Z,79.43
2019-05-19T01:04:12.563Z,79.42
2019-05-19T01:06:42.320Z,79.37
2019-05-19T01:09:12.174Z,79.56
2019-05-19T01:11:44.360Z,79.73
2019-05-19T01:14:15.445Z,79.83
2019-05-19T01:16:46.534Z,80.06
2019-05-19T01:19:17.166Z,80.11
2019-05-19T01:21:48.460Z,80.18
2019-05-19T01:24:22.213Z,80.32
2019-05-19T01:26:51.716Z,80.19
2019-05-19T01:29:21.852Z,80.12
2019-05-19T01:31:52.736Z,80.00
2019-05-19T01:34:22.639Z,79.93
2019-05-19T01:36:52.485Z,80.09
2019-05-19T01:39:23.258Z,80.19
2019-05-19T01:41:52.756Z,80.29
2019-05-19T01:44:22.483Z,80.33
2019-05-19T01:46:52.332Z,80.39
2019-05-19T01:49:22.134Z,80.49
2019-05-19T01:51:51.927Z,80.79
2019-05-19T01:54:26.907Z,81.09
2019-05-19T01:56:56.398Z,81.19
2019-05-19T01:59:26.290Z,81.36
2019-05-19T02:01:56.384Z,81.54
2019-05-19T02:04:27.846Z,81.47
2019-05-19T02:07:01.576Z,81.52
2019-05-19T02:09:32.414Z,81.64
2019-05-19T02:12:07.922Z,81.57
2019-05-19T02:14:38.221Z,81.42
2019-05-19T02:17:07.891Z,81.36
2019-05-19T02:19:39.137Z,81.43
2019-05-19T02:22:09.935Z,81.44
2019-05-19T02:24:41.123Z,81.52
2019-05-19T02:27:10.762Z,81.67
2019-05-19T02:29:40.528Z,81.84
2019-05-19T02:32:10.750Z,81.90
2019-05-19T02:34:41.389Z,81.91
2019-05-19T02:37:12.006Z,82.12
2019-05-19T02:39:41.545Z,81.99
2019-05-19T02:42:13.054Z,81.86
2019-05-19T02:44:43.069Z,81.92
2019-05-19T02:47:15.184Z,82.01
2019-05-19T02:49:49.086Z,82.10
2019-05-19T02:52:20.153Z,82.06
2019-05-19T02:54:50.307Z,82.16
2019-05-19T02:57:21.394Z,82.25
2019-05-19T02:59:51.914Z,82.33
2019-05-19T03:02:22.154Z,82.34
2019-05-19T03:04:53.818Z,82.34
2019-05-19T03:07:23.951Z,82.27
2019-05-19T03:09:53.493Z,82.40
2019-05-19T03:12:23.332Z,82.43
2019-05-19T03:14:52.987Z,82.56
2019-05-19T03:17:22.793Z,82.79
2019-05-19T03:19:53.191Z,82.81
2019-05-19T03:22:24.472Z,82.95
2019-05-19T03:24:54.287Z,82.95
2019-05-19T03:27:24.238Z,82.93
2019-05-19T03:29:58.279Z,82.98
2019-05-19T03:32:33.644Z,82.95
2019-05-19T03:35:04.094Z,82.82
2019-05-19T03:37:33.773Z,82.77
2019-05-19T03:40:06.461Z,82.68
2019-05-19T03:42:36.813Z,82.59
2019-05-19T03:45:07.517Z,82.59
2019-05-19T03:47:37.596Z,82.69
2019-05-19T03:50:08.350Z,82.84
2019-05-19T03:52:38.415Z,82.88
2019-05-19T03:55:08.559Z,82.87
2019-05-19T03:57:40.466Z,82.93
2019-05-19T04:00:11.103Z,82.96
2019-05-19T04:02:42.519Z,82.84
2019-05-19T04:05:12.449Z,82.71
2019-05-19T04:07:42.750Z,82.59
2019-05-19T04:10:13.098Z,82.50
2019-05-19T04:12:42.783Z,82.60
2019-05-19T04:15:12.836Z,82.59
2019-05-19T04:17:44.352Z,82.53
2019-05-19T04:20:14.567Z,82.53
2019-05-19T04:22:44.452Z,82.46
2019-05-19T04:25:21.191Z,82.49
2019-05-19T04:27:51.198Z,82.55
2019-05-19T04:30:22.335Z,82.61
2019-05-19T04:32:52.239Z,82.71
2019-05-19T04:35:22.415Z,83.26
2019-05-19T04:37:52.654Z,82.83
2019-05-19T04:40:23.567Z,82.82
2019-05-19T04:42:53.901Z,82.67
2019-05-19T04:45:23.888Z,82.59
2019-05-19T04:47:53.680Z,82.50
2019-05-19T04:50:23.319Z,82.43
2019-05-19T04:52:53.057Z,82.34
2019-05-19T04:55:22.865Z,82.43
2019-05-19T04:57:52.542Z,82.28
2019-05-19T05:00:22.395Z,82.28
2019-05-19T05:02:52.264Z,82.33
2019-05-19T05:05:22.327Z,82.25
2019-05-19T05:07:52.715Z,82.31
2019-05-19T05:10:23.602Z,82.12
2019-05-19T05:12:53.451Z,82.18
2019-05-19T05:15:24.437Z,82.01
2019-05-19T05:17:54.041Z,81.87
2019-05-19T05:20:24.735Z,81.86
2019-05-19T05:22:55.021Z,81.78
2019-05-19T05:25:24.633Z,81.79
2019-05-19T05:27:54.040Z,81.77
2019-05-19T05:30:24.107Z,81.58
2019-05-19T05:32:53.837Z,81.57
2019-05-19T05:35:23.747Z,81.43
2019-05-19T05:37:59.559Z,81.19
2019-05-19T05:40:31.568Z,81.10
2019-05-19T05:43:01.279Z,80.94
2019-05-19T05:45:32.255Z,80.76
2019-05-19T05:48:03.763Z,80.56
2019-05-19T05:50:35.100Z,80.42
2019-05-19T05:53:05.214Z,80.33
2019-05-19T05:55:36.147Z,80.24
2019-05-19T05:58:07.955Z,80.33
2019-05-19T06:00:37.918Z,80.18
2019-05-19T06:03:09.372Z,80.14
2019-05-19T06:05:39.440Z,80.00
2019-05-19T06:08:09.275Z,80.00
2019-05-19T06:10:38.881Z,79.90
2019-05-19T06:13:10.184Z,79.89
2019-05-19T06:15:41.223Z,79.82
2019-05-19T06:18:11.295Z,79.71
2019-05-19T06:20:48.246Z,79.57
2019-05-19T06:23:18.053Z,79.42
2019-05-19T06:25:48.343Z,79.11
2019-05-19T06:28:19.565Z,79.07
2019-05-19T06:30:50.467Z,78.92
2019-05-19T06:33:20.766Z,78.61
2019-05-19T06:35:52.576Z,78.50
2019-05-19T06:38:22.348Z,78.41
2019-05-19T06:40:52.201Z,78.19
2019-05-19T06:43:22.441Z,78.02
2019-05-19T06:45:53.752Z,77.89
2019-05-19T06:48:24.843Z,77.54
2019-05-19T06:50:55.709Z,77.29
2019-05-19T06:53:25.435Z,77.04
2019-05-19T06:55:56.441Z,76.71
2019-05-19T06:58:28.435Z,76.32
2019-05-19T07:00:59.341Z,75.97
2019-05-19T07:03:29.209Z,76.00
2019-05-19T07:05:59.495Z,75.81
2019-05-19T07:08:33.877Z,75.64
2019-05-19T07:11:05.330Z,75.37
2019-05-19T07:13:35.326Z,75.25
2019-05-19T07:16:05.179Z,75.00
2019-05-19T07:18:35.063Z,74.99
2019-05-19T07:21:05.360Z,74.81
2019-05-19T07:23:35.987Z,74.72
2019-05-19T07:26:07.017Z,74.67
2019-05-19T07:28:37.859Z,74.66
2019-05-19T07:31:07.700Z,74.44
2019-05-19T07:33:38.864Z,74.15
2019-05-19T07:36:09.028Z,74.00
2019-05-19T07:38:39.061Z,73.93
2019-05-19T07:41:10.519Z,73.76
2019-05-19T07:43:41.394Z,72.89
2019-05-19T07:46:16.326Z,71.98
2019-05-19T07:48:46.167Z,72.42
2019-05-19T07:51:15.837Z,71.74
2019-05-19T07:53:46.892Z,71.16
2019-05-19T07:56:18.092Z,70.68
2019-05-19T07:58:47.924Z,70.70
2019-05-19T08:01:17.989Z,70.74
2019-05-19T08:03:47.670Z,69.68
2019-05-19T08:06:18.508Z,64.62
2019-05-19T08:08:48.979Z,63.31
2019-05-19T08:11:19.181Z,65.23
2019-05-19T08:13:50.033Z,65.83
2019-05-19T08:16:21.944Z,65.61
2019-05-19T08:18:53.837Z,65.08
2019-05-19T08:21:24.930Z,64.49
2019-05-19T08:24:00.694Z,64.24
2019-05-19T08:26:29.021Z,63.68
2019-05-19T08:29:01.142Z,62.94
2019-05-19T08:31:33.062Z,63.38
2019-05-19T08:34:03.270Z,63.25
2019-05-19T08:36:34.065Z,62.98
2019-05-19T08:39:06.575Z,63.02
2019-05-19T08:41:37.497Z,62.17
2019-05-19T08:44:08.152Z,61.83
2019-05-19T08:46:38.358Z,62.32
2019-05-19T08:49:08.973Z,62.51
2019-05-19T08:51:39.289Z,62.90
2019-05-19T08:54:15.166Z,62.92
2019-05-19T08:56:41.243Z,62.39
2019-05-19T08:59:11.278Z,62.15
2019-05-19T09:01:42.899Z,61.80
2019-05-19T09:04:14.410Z,60.65
2019-05-19T09:06:46.434Z,61.61
2019-05-19T09:09:17.282Z,62.15
2019-05-19T09:11:48.034Z,61.84
2019-05-19T09:14:18.138Z,61.41
2019-05-19T09:16:48.541Z,60.88
2019-05-19T09:19:18.461Z,61.33
2019-05-19T09:21:50.086Z,60.95
2019-05-19T09:24:30.238Z,60.32
2019-05-19T09:26:58.361Z,60.17
2019-05-19T09:29:29.633Z,60.05
2019-05-19T09:32:02.617Z,58.72
2019-05-19T09:34:33.158Z,59.40
2019-05-19T09:37:05.594Z,59.61
2019-05-19T09:39:36.328Z,59.15
2019-05-19T09:42:08.569Z,58.75
2019-05-19T09:44:41.186Z,58.71
2019-05-19T09:47:11.459Z,57.49
2019-05-19T09:49:41.353Z,57.04
2019-05-19T09:52:11.088Z,55.09
2019-05-19T09:54:45.287Z,54.31
2019-05-19T09:57:13.331Z,54.14
2019-05-19T09:59:43.648Z,55.03
2019-05-19T10:02:15.099Z,55.78
2019-05-19T10:04:45.609Z,57.81
2019-05-19T10:07:16.599Z,59.94
2019-05-19T10:10:04.106Z,60.48
2019-05-19T10:12:33.774Z,62.40
2019-05-19T10:15:04.226Z,64.40
2019-05-19T10:17:34.306Z,65.00
2019-05-19T10:20:04.728Z,65.88
2019-05-19T10:22:36.011Z,66.51
2019-05-19T10:25:20.963Z,66.06
2019-05-19T10:27:39.637Z,66.18
2019-05-19T10:30:10.514Z,65.96
2019-05-19T10:32:43.939Z,66.25
2019-05-19T10:35:14.184Z,66.79
2019-05-19T10:37:45.786Z,66.16
2019-05-19T10:40:15.654Z,65.11
2019-05-19T10:42:48.675Z,65.46
2019-05-19T10:45:18.782Z,64.93
2019-05-19T10:47:48.443Z,64.33
2019-05-19T10:50:18.669Z,64.64
2019-05-19T10:52:49.221Z,64.22
2019-05-19T10:55:19.283Z,64.37
2019-05-19T10:57:50.232Z,64.19
2019-05-19T11:00:20.831Z,65.22
2019-05-19T11:02:50.902Z,65.08
2019-05-19T11:05:23.050Z,65.37
2019-05-19T11:07:54.049Z,65.42
2019-05-19T11:10:24.593Z,64.65
2019-05-19T11:12:54.879Z,64.54
2019-05-19T11:15:26.306Z,64.77
2019-05-19T11:17:56.978Z,64.63
2019-05-19T11:20:27.518Z,64.59
2019-05-19T11:22:57.673Z,64.11
2019-05-19T11:25:33.890Z,63.32
2019-05-19T11:27:59.068Z,63.59
2019-05-19T11:30:29.086Z,63.44
2019-05-19T11:32:59.023Z,63.15
2019-05-19T11:35:28.892Z,62.56
2019-05-19T11:37:58.903Z,62.02
2019-05-19T11:40:28.534Z,61.69
2019-05-19T11:42:58.517Z,61.52
2019-05-19T11:45:28.137Z,61.46
2019-05-19T11:47:58.257Z,61.30
2019-05-19T11:50:28.084Z,61.03
2019-05-19T11:52:57.745Z,60.81
2019-05-19T11:55:27.629Z,60.49
2019-05-19T11:57:58.053Z,59.89
2019-05-19T12:00:27.753Z,59.53
2019-05-19T12:02:57.743Z,59.50
2019-05-19T12:05:27.812Z,59.38
2019-05-19T12:07:57.721Z,59.52
2019-05-19T12:10:28.530Z,60.03
2019-05-19T12:12:58.714Z,59.54
2019-05-19T12:15:28.765Z,59.14
2019-05-19T12:17:58.788Z,59.32
2019-05-19T12:20:28.441Z,59.50
2019-05-19T12:22:58.100Z,59.27
2019-05-19T12:25:27.644Z,58.92
2019-05-19T12:27:57.309Z,58.67
2019-05-19T12:30:27.053Z,58.44
2019-05-19T12:32:59.306Z,58.56
2019-05-19T12:35:28.588Z,58.68
2019-05-19T12:37:58.494Z,59.08
2019-05-19T12:40:28.421Z,58.56
2019-05-19T12:42:58.000Z,58.45
2019-05-19T12:45:28.113Z,58.27
2019-05-19T12:47:57.736Z,58.49
2019-05-19T12:50:27.440Z,58.36
2019-05-19T12:52:57.461Z,58.27
2019-05-19T12:55:26.982Z,58.70
2019-05-19T12:57:56.714Z,58.45
2019-05-19T13:00:29.528Z,57.56
2019-05-19T13:03:00.022Z,57.30
2019-05-19T13:05:29.795Z,57.59
2019-05-19T13:07:59.899Z,57.04
2019-05-19T13:10:29.481Z,56.85
2019-05-19T13:12:59.096Z,56.03
2019-05-19T13:15:28.943Z,57.26
2019-05-19T13:17:58.886Z,56.73
2019-05-19T13:20:28.495Z,56.93
2019-05-19T13:22:58.157Z,56.78
2019-05-19T13:27:56.722Z,55.50
2019-05-19T13:30:26.671Z,55.71
2019-05-19T13:32:59.015Z,55.52
2019-05-19T13:35:38.247Z,54.99
2019-05-19T13:38:08.534Z,54.85
2019-05-19T13:40:38.253Z,54.71
2019-05-19T13:43:09.499Z,54.71
2019-05-19T13:45:41.502Z,55.05
2019-05-19T13:48:11.362Z,55.02
2019-05-19T13:50:40.866Z,54.83
2019-05-19T13:53:11.047Z,54.59
2019-05-19T13:55:45.180Z,54.39
2019-05-19T13:58:15.587Z,54.29
2019-05-19T14:00:45.782Z,53.65
2019-05-19T14:03:16.162Z,53.64
2019-05-19T14:05:46.493Z,53.84
2019-05-19T14:08:16.117Z,53.57
2019-05-19T14:10:45.919Z,53.17
2019-05-19T14:13:18.047Z,53.77
2019-05-19T14:15:48.192Z,53.79
2019-05-19T14:18:19.490Z,53.10
2019-05-19T14:20:49.327Z,53.31
2019-05-19T14:23:19.442Z,53.37
2019-05-19T14:25:50.026Z,52.91
2019-05-19T14:28:20.922Z,52.81
2019-05-19T14:30:51.093Z,52.79
2019-05-19T14:33:20.993Z,53.10
2019-05-19T14:35:50.881Z,52.81
2019-05-19T14:38:21.218Z,52.50
2019-05-19T14:40:51.028Z,52.31
2019-05-19T14:43:23.112Z,52.94
2019-05-19T14:45:55.051Z,52.71
2019-05-19T14:48:25.013Z,52.92
2019-05-19T14:50:55.939Z,52.67
2019-05-19T14:53:26.319Z,52.83
2019-05-19T14:55:56.130Z,52.34
2019-05-19T14:58:26.094Z,51.99
2019-05-19T15:00:56.338Z,51.67
2019-05-19T15:03:26.091Z,51.39
2019-05-19T15:05:55.754Z,50.85
2019-05-19T15:08:25.921Z,50.72
2019-05-19T15:10:55.836Z,50.77
2019-05-19T15:13:25.924Z,51.84
2019-05-19T15:15:58.019Z,52.38
2019-05-19T15:18:27.707Z,52.66
2019-05-19T15:20:57.682Z,52.89
2019-05-19T15:23:27.527Z,53.40
2019-05-19T15:25:57.594Z,53.70
2019-05-19T15:28:28.738Z,53.87
2019-05-19T15:30:58.470Z,53.25
2019-05-19T15:33:37.872Z,52.77
2019-05-19T15:36:01.570Z,52.85
2019-05-19T15:38:32.036Z,52.74
2019-05-19T15:41:02.060Z,52.14
2019-05-19T15:43:32.125Z,51.84
2019-05-19T15:46:02.336Z,51.57
2019-05-19T15:48:32.423Z,49.61
2019-05-19T15:51:02.501Z,49.17
2019-05-19T15:53:32.491Z,48.12
2019-05-19T15:56:03.210Z,48.45
2019-05-19T15:58:35.191Z,48.64
2019-05-19T16:01:05.973Z,49.17
2019-05-19T16:03:35.765Z,49.28
2019-05-19T16:06:06.208Z,50.31
2019-05-19T16:08:36.275Z,50.96
2019-05-19T16:11:06.820Z,51.47
2019-05-19T16:13:36.658Z,51.84
2019-05-19T16:16:06.563Z,51.85
2019-05-19T16:18:36.473Z,51.96
2019-05-19T16:21:06.826Z,52.06
2019-05-19T16:23:37.796Z,52.09
2019-05-19T16:26:08.841Z,51.85
2019-05-19T16:28:38.693Z,51.79
2019-05-19T16:31:08.516Z,51.87
2019-05-19T16:33:38.676Z,51.98
2019-05-19T16:36:08.567Z,52.37
2019-05-19T16:38:38.378Z,52.60
2019-05-19T16:41:08.763Z,52.66
2019-05-19T16:43:38.545Z,52.46
2019-05-19T16:46:11.327Z,51.98
2019-05-19T16:48:41.704Z,51.84
2019-05-19T16:51:12.746Z,52.06
2019-05-19T16:53:44.215Z,51.91
2019-05-19T16:56:14.806Z,51.46
2019-05-19T16:58:45.910Z,51.39
2019-05-19T17:01:19.791Z,51.37
2019-05-19T17:03:48.897Z,51.54
2019-05-19T17:06:21.531Z,51.66
2019-05-19T17:08:52.718Z,51.54
2019-05-19T17:11:23.231Z,51.77
2019-05-19T17:13:53.782Z,52.05
2019-05-19T17:16:24.605Z,51.96
2019-05-19T17:18:54.272Z,52.10
2019-05-19T17:21:27.082Z,52.12
2019-05-19T17:23:56.929Z,52.12
2019-05-19T17:26:27.018Z,52.03
2019-05-19T17:29:01.091Z,51.71
2019-05-19T17:31:31.306Z,51.59
2019-05-19T17:34:03.902Z,51.59
2019-05-19T17:36:33.716Z,51.53
2019-05-19T17:39:06.420Z,51.58
2019-05-19T17:41:36.164Z,51.58
2019-05-19T17:44:06.324Z,51.81
2019-05-19T17:46:38.226Z,52.01
2019-05-19T17:49:07.881Z,52.23
2019-05-19T17:51:37.638Z,52.27
2019-05-19T17:54:08.404Z,52.45
2019-05-19T17:56:40.772Z,52.46
2019-05-19T17:59:16.473Z,52.70
2019-05-19T18:01:44.393Z,52.94
2019-05-19T18:04:14.386Z,53.08
2019-05-19T18:06:44.171Z,53.36
2019-05-19T18:09:14.123Z,53.59
2019-05-19T18:11:43.625Z,53.41
2019-05-19T18:14:13.338Z,53.44
2019-05-19T18:16:43.333Z,53.36
2019-05-19T18:19:14.565Z,53.38
2019-05-19T18:21:45.533Z,53.10
2019-05-19T18:24:15.160Z,53.18
2019-05-19T18:26:45.092Z,52.66
2019-05-19T18:29:15.139Z,52.75
2019-05-19T18:31:45.142Z,52.89
2019-05-19T18:34:15.069Z,52.70
2019-05-19T18:36:44.836Z,52.42
2019-05-19T18:39:14.909Z,52.46
2019-05-19T18:41:46.725Z,52.36
2019-05-19T18:44:16.706Z,52.47
2019-05-19T18:46:46.493Z,52.90
2019-05-19T18:49:16.826Z,53.29
2019-05-19T18:51:48.688Z,53.35
2019-05-19T18:54:18.392Z,53.55
2019-05-19T18:56:51.027Z,53.30
2019-05-19T18:59:19.705Z,52.99
2019-05-19T19:01:50.938Z,52.95
2019-05-19T19:04:20.949Z,52.71
2019-05-19T19:06:50.674Z,52.70
2019-05-19T19:09:20.865Z,52.68
2019-05-19T19:11:50.849Z,52.81
2019-05-19T19:14:21.332Z,52.73
2019-05-19T19:16:51.208Z,52.92
2019-05-19T19:19:21.240Z,52.98
2019-05-19T19:22:05.070Z,52.81
2019-05-19T19:24:38.721Z,53.13
2019-05-19T19:27:08.673Z,53.30
2019-05-19T19:29:38.721Z,53.55
2019-05-19T19:32:11.006Z,53.79
2019-05-19T19:34:41.123Z,53.98
2019-05-19T19:37:10.901Z,54.32
2019-05-19T19:39:40.855Z,54.51
2019-05-19T19:42:10.692Z,54.73
2019-05-19T19:44:41.261Z,54.96
2019-05-19T19:47:11.049Z,55.27
2019-05-19T19:49:40.830Z,55.54
2019-05-19T19:52:10.608Z,55.64
2019-05-19T19:54:40.699Z,55.89
2019-05-19T19:57:10.391Z,56.22
2019-05-19T19:59:40.412Z,56.34
2019-05-19T20:02:10.399Z,56.59
2019-05-19T20:04:40.013Z,56.83
2019-05-19T20:07:09.518Z,56.94
2019-05-19T20:09:39.399Z,57.28
2019-05-19T20:12:09.338Z,57.50
2019-05-19T20:14:42.347Z,57.90
2019-05-19T20:17:12.370Z,58.05
2019-05-19T20:19:42.069Z,58.22
2019-05-19T20:22:12.472Z,58.39
2019-05-19T20:24:42.076Z,58.51
2019-05-19T20:27:11.894Z,58.59
2019-05-19T20:29:42.047Z,58.74
2019-05-19T20:32:14.146Z,58.97
2019-05-19T20:34:45.412Z,59.13
2019-05-19T20:37:15.385Z,59.49
2019-05-19T20:39:45.200Z,59.83
2019-05-19T20:42:17.735Z,60.29
2019-05-19T20:44:47.834Z,60.51
2019-05-19T20:47:17.542Z,60.72
2019-05-19T20:49:47.411Z,61.00
2019-05-19T20:52:17.134Z,61.17
2019-05-19T20:54:46.769Z,61.59
2019-05-19T20:57:17.516Z,61.81
2019-05-19T20:59:47.267Z,62.15
2019-05-19T21:02:17.791Z,62.25
2019-05-19T21:04:47.617Z,62.33
2019-05-19T21:07:17.309Z,62.73
2019-05-19T21:09:46.988Z,62.98
2019-05-19T21:12:16.983Z,63.08
2019-05-19T21:14:46.990Z,63.03
2019-05-19T21:17:16.743Z,63.29
2019-05-19T21:19:46.541Z,63.47
2019-05-19T21:22:16.335Z,63.61
2019-05-19T21:24:46.327Z,64.21
2019-05-19T21:27:15.951Z,64.43
2019-05-19T21:29:45.692Z,64.69
2019-05-19T21:32:15.145Z,64.94
2019-05-19T21:34:44.767Z,65.18
2019-05-19T21:37:14.764Z,65.18
2019-05-19T21:39:44.809Z,65.38
2019-05-19T21:42:14.653Z,65.43
2019-05-19T21:44:44.722Z,65.30
2019-05-19T21:47:14.280Z,65.59
2019-05-19T21:49:44.011Z,65.48
2019-05-19T21:52:13.724Z,65.64
2019-05-19T21:54:43.338Z,66.00
2019-05-19T21:57:12.792Z,65.73
2019-05-19T21:59:42.432Z,65.80
2019-05-19T22:02:11.994Z,66.01
2019-05-19T22:04:41.618Z,66.22
2019-05-19T22:07:15.492Z,66.40
2019-05-19T22:09:45.157Z,66.64
2019-05-19T22:12:14.983Z,66.68
2019-05-19T22:14:44.830Z,66.83
2019-05-19T22:17:14.440Z,66.88
2019-05-19T22:19:43.864Z,66.94
2019-05-19T22:22:13.781Z,66.99
2019-05-19T22:24:43.495Z,66.90
2019-05-19T22:27:13.243Z,67.07
2019-05-19T22:29:42.919Z,67.21
2019-05-19T22:32:12.501Z,67.52
2019-05-19T22:34:42.219Z,67.75
2019-05-19T22:37:11.924Z,67.97
2019-05-19T22:39:41.470Z,67.89
2019-05-19T22:42:10.965Z,68.07
2019-05-19T22:44:40.636Z,68.13
2019-05-19T22:47:10.451Z,68.23
2019-05-19T22:49:40.067Z,68.38
2019-05-19T22:52:09.894Z,68.39
2019-05-19T22:54:39.571Z,68.45
2019-05-19T22:57:09.057Z,68.54
2019-05-19T22:59:38.812Z,68.58
2019-05-19T23:02:09.327Z,68.73
2019-05-19T23:04:39.050Z,68.82
2019-05-19T23:07:08.572Z,69.13
2019-05-19T23:09:38.445Z,69.23
2019-05-19T23:12:08.048Z,69.58
2019-05-19T23:14:37.539Z,69.66
2019-05-19T23:17:07.171Z,69.96
2019-05-19T23:19:36.680Z,70.08
2019-05-19T23:22:06.657Z,70.09
2019-05-19T23:24:36.424Z,70.11
2019-05-19T23:27:05.957Z,70.19
2019-05-19T23:29:35.525Z,70.37
2019-05-19T23:32:07.422Z,70.39
2019-05-19T23:34:36.831Z,70.37
2019-05-19T23:37:06.799Z,70.41
2019-05-19T23:39:36.629Z,70.70
2019-05-19T23:42:06.203Z,70.81
2019-05-19T23:44:35.840Z,70.85
2019-05-19T23:47:05.383Z,70.83
2019-05-19T23:49:35.603Z,70.76
2019-05-19T23:52:05.356Z,70.95
2019-05-19T23:54:34.861Z,70.94
2019-05-19T23:57:04.593Z,71.05
2019-05-19T23:59:34.257Z,70.96
